ADDS METAR Data INFO
IDs: Format: Raw Decoded Include TAF

Data at: 0714 UTC 24 Jun 2018

KY70 240655Z AUTO 25008KT 10SM OVC006 17/16 A2980 RMK AO2 T01650156
KY70 240635Z AUTO 25004KT 10SM OVC006 16/16 A2979 RMK AO2 T01630155
KY70 240615Z AUTO 25006KT 10SM OVC006 16/16 A2979 RMK AO2 T01610155
KY70 240555Z AUTO 25006KT 10SM SCT006 16/15 A2979 RMK AO2 T01560151 10202 20155 402190155
KY70 240535Z AUTO 24006KT 10SM CLR 16/15 A2979 RMK AO2 T01550147
KY70 240515Z AUTO 25006KT 10SM CLR 16/15 A2978 RMK AO2 T01590150
KY70 240455Z AUTO 25007KT 10SM CLR 16/15 A2978 RMK AO2 T01600150
KY70 240435Z AUTO 25006KT 10SM CLR 17/15 A2978 RMK AO2 T01650152
KY70 240415Z AUTO 24006KT 10SM CLR 17/15 A2977 RMK AO2 T01650152
KY70 240355Z AUTO 25006KT 10SM CLR 17/15 A2978 RMK AO2 T01670154
KY70 240335Z AUTO 23005KT 10SM CLR 17/16 A2978 RMK AO2 T01700156
KY70 240315Z AUTO 22005KT 10SM SCT060 18/16 A2977 RMK AO2 T01780157
KY70 240255Z AUTO 20004KT 10SM BKN060 18/16 A2977 RMK AO2 T01800157
KY70 240235Z AUTO 20005KT 10SM SCT060 18/16 A2977 RMK AO2 T01840157
KY70 240215Z AUTO 20004KT 10SM CLR 19/16 A2977 RMK AO2 T01850160
KY70 240155Z AUTO 20005KT 10SM CLR 19/16 A2976 RMK AO2 T01850162
KY70 240135Z AUTO 20004KT 10SM CLR 19/16 A2975 RMK AO2 T01880163
KY70 240115Z AUTO 19004KT 10SM CLR 19/16 A2975 RMK AO2 T01910163
KY70 240055Z AUTO 19005KT 10SM CLR 20/16 A2975 RMK AO2 T01960161
KY70 240035Z AUTO 22004KT 10SM SCT070 20/16 A2974 RMK AO2 T02000160
KY70 240015Z AUTO 25004KT 10SM BKN070 20/16 A2974 RMK AO2 T02020161
KY70 232355Z AUTO 26005KT 10SM BKN070 20/16 A2974 RMK AO2 T01990160 10219 20196
KY70 232335Z AUTO 27006KT 10SM SCT055 OVC070 20/17 A2974 RMK AO2 T02030167
KY70 232315Z AUTO 28006KT 10SM BKN055 OVC070 21/17 A2974 RMK AO2 T02060166
KY70 232255Z AUTO 29007KT 10SM BKN055 OVC070 21/17 A2974 RMK AO2 T02050169
KY70 232235Z AUTO 26008KT 10SM SCT015 BKN022 OVC055 20/17 A2975 RMK AO2 T02030174
KY70 232215Z AUTO 24005KT 4SM -DZ SCT008 BKN015 OVC020 20/19 A2975 RMK AO2 T01960190
KY70 232155Z AUTO 23006KT 5SM +RA BKN015 BKN023 OVC047 20/19 A2975 RMK AO2 T02000186
KY70 232135Z AUTO 23004KT 7SM RA SCT017 BKN039 OVC047 21/18 A2974 RMK AO2 T02050181
KY70 232115Z AUTO 26007KT 10SM RA SCT019 BKN027 OVC041 22/17 A2974 RMK AO2 T02160173
KY70 232055Z AUTO 28006KT 10SM BKN021 OVC026 22/17 A2974 RMK AO2 T02170174
KY70 232035Z AUTO 26004KT 10SM BKN021 OVC026 22/17 A2974 RMK AO2 T02170169
KY70 232015Z AUTO 24003KT 10SM OVC019 22/17 A2973 RMK AO2 T02160169
KY70 231955Z AUTO 26004KT 10SM OVC021 22/17 A2972 RMK AO2 T02170165
KY70 231935Z AUTO 00000KT 10SM BKN021 OVC029 22/17 A2972 RMK AO2 T02160165
KY70 231915Z AUTO 00000KT 10SM BKN017 OVC027 22/17 A2971 RMK AO2 T02160165
KY70 231855Z AUTO 16003KT 10SM OVC017 21/17 A2971 RMK AO2 T02120165
KY70 231835Z AUTO 00000KT 10SM OVC019 21/16 A2971 RMK AO2 T02100162
KY70 231815Z AUTO 00000KT 10SM OVC019 21/16 A2971 RMK AO2 T02110161
KY70 231755Z AUTO 00000KT 10SM OVC016 21/16 A2971 RMK AO2 T02060163 10219 20166
KY70 231735Z AUTO 00000KT 10SM OVC016 21/17 A2970 RMK AO2 T02120166
KY70 231715Z AUTO 00000KT 10SM OVC014 20/17 A2971 RMK AO2 T02030165
KY70 231655Z AUTO 02003KT 10SM OVC012 20/17 A2971 RMK AO2 T02030167
KY70 231635Z AUTO 30003KT 10SM OVC012 20/16 A2972 RMK AO2 T02000163
KY70 231615Z AUTO 26004KT 10SM OVC010 20/17 A2973 RMK AO2 T01990166
KY70 231555Z AUTO 29003KT 10SM OVC007 19/17 A2972 RMK AO2 T01870169
KY70 231535Z AUTO 00000KT 7SM BKN005 OVC010 19/17 A2971 RMK AO2 T01870172
KY70 231515Z AUTO 35003KT 3SM BR OVC005 18/17 A2972 RMK AO2 T01810173
KY70 231455Z AUTO 29005KT 4SM BR OVC005 18/17 A2973 RMK AO2 T01810169
KY70 231435Z AUTO 29005KT 5SM BR OVC005 18/17 A2972 RMK AO2 T01800170
KY70 231415Z AUTO 29004KT 7SM OVC005 18/17 A2973 RMK AO2 T01810170
KY70 231355Z AUTO 27003KT 5SM BR OVC005 17/17 A2972 RMK AO2 T01740171
KY70 231335Z AUTO 36003KT 4SM BR OVC003 17/17 A2972 RMK AO2 T01710170
KY70 231315Z AUTO 35004KT 5SM BR OVC003 17/17 A2972 RMK AO2 T01700170
KY70 231255Z AUTO 35003KT 1 3/4SM BR OVC003 17/17 A2972 RMK AO2 T01680168
KY70 231235Z AUTO 03003KT 3SM BR OVC003 17/17 A2971 RMK AO2 T01680168
KY70 231215Z AUTO 02004KT 1 3/4SM BR OVC001 17/17 A2971 RMK AO2 T01660166
KY70 231155Z AUTO 04003KT 1SM BR OVC001 17/17 A2971 RMK AO2 70001 T01670166 10167 20163
KY70 231135Z AUTO 00000KT 1SM BR OVC001 17/16 A2972 RMK AO2 T01650164
KY70 231115Z AUTO 02003KT 1/2SM FG OVC001 17/16 A2972 RMK AO2 T01650164
KY70 231055Z AUTO 01004KT 1/2SM FG OVC001 17/16 A2972 RMK AO2 T01650163
KY70 231035Z AUTO 04004KT 1/2SM FG OVC001 17/16 A2971 RMK AO2 T01650164
KY70 231015Z AUTO 02003KT 1SM BR OVC001 17/16 A2970 RMK AO2 T01650163
KY70 230955Z AUTO 03004KT 1 1/4SM BR OVC001 16/16 A2970 RMK AO2 T01630162
KY70 230935Z AUTO 05005KT 1 3/4SM BR OVC003 16/16 A2969 RMK AO2 T01630162
KY70 230915Z AUTO 04005KT 1 3/4SM BR OVC003 17/16 A2970 RMK AO2 T01650163
KY70 230855Z AUTO 05005KT 1 3/4SM BR OVC003 17/17 A2969 RMK AO2 T01650165
KY70 230835Z AUTO 04005KT 2 1/2SM BR OVC003 17/17 A2970 RMK AO2 T01660165
KY70 230815Z AUTO 05006KT 3SM BR OVC003 17/16 A2970 RMK AO2 T01660164
KY70 230755Z AUTO 05006KT 2SM BR OVC003 17/17 A2970 RMK AO2 T01660165
KY70 230735Z AUTO 03005KT 2SM BR OVC003 17/16 A2970 RMK AO2 T01660164
KY70 230715Z AUTO 03005KT 2 1/2SM BR OVC003 17/16 A2972 RMK AO2 T01650163
KY70 230655Z AUTO 04006KT 2 1/2SM BR OVC003 17/16 A2971 RMK AO2 T01650162
KY70 230635Z AUTO 03004KT 4SM BR OVC005 17/16 A2972 RMK AO2 T01660161
KY70 230615Z AUTO 02006KT 5SM BR OVC005 17/16 A2972 RMK AO2 T01670162
KY70 230555Z AUTO 03006KT 7SM OVC005 17/16 A2972 RMK AO2 T01670160 10194 20167 402360140
KY70 230535Z AUTO 04007KT 7SM OVC005 17/16 A2973 RMK AO2 T01690160
KY70 230515Z AUTO 03006KT 10SM BKN007 OVC011 17/16 A2973 RMK AO2 T01720158
KY70 230455Z AUTO 05008KT 10SM OVC011 18/15 A2974 RMK AO2 T01750151
KY70 230435Z AUTO 05007KT 10SM OVC016 18/15 A2974 RMK AO2 T01770145
KY70 230415Z AUTO 06011G14KT 10SM OVC018 18/13 A2973 RMK AO2 T01810134
KY70 230355Z AUTO 04008KT 10SM BKN020 OVC034 19/12 A2974 RMK AO2 T01850119
KY70 230335Z AUTO 03007KT 10SM OVC024 19/12 A2974 RMK AO2 T01850115
KY70 230315Z AUTO 05008KT 10SM BKN026 OVC032 19/11 A2974 RMK AO2 T01860113
KY70 230255Z AUTO 04008KT 10SM OVC034 19/11 A2975 RMK AO2 T01860114
KY70 230235Z AUTO 04010G14KT 10SM OVC036 19/12 A2975 RMK AO2 T01870115
KY70 230215Z AUTO 03008G14KT 10SM OVC038 19/12 A2974 RMK AO2 T01860117
KY70 230155Z AUTO 04008KT 10SM OVC038 19/12 A2974 RMK AO2 T01860121
KY70 230135Z AUTO 03007KT 10SM -RA OVC038 19/12 A2974 RMK AO2 T01870124
KY70 230115Z AUTO 05009G15KT 10SM OVC038 19/12 A2974 RMK AO2 T01920122
KY70 230055Z AUTO 04010G14KT 10SM BKN040 OVC050 19/12 A2974 RMK AO2 T01920124
KY70 230035Z AUTO 03008KT 10SM SCT044 OVC050 19/13 A2975 RMK AO2 T01920130
KY70 230015Z AUTO 04009G15KT 10SM -DZ OVC055 19/13 A2975 RMK AO2 T01920133
KY70 222355Z AUTO 04009G15KT 10SM RA BKN055 OVC065 20/14 A2975 RMK AO2 60001 T01950135 10236 20195
KY70 222335Z AUTO 04010KT 10SM -RA OVC065 21/13 A2975 RMK AO2 T02050133
KY70 222315Z AUTO 05009KT 10SM SCT060 SCT120 21/13 A2974 RMK AO2 T02100134
KY70 222255Z AUTO 04006G14KT 10SM SCT032 SCT070 BKN120 21/14 A2975 RMK AO2 T02100135
KY70 222235Z AUTO 05008KT 10SM SCT029 BKN041 OVC070 22/14 A2975 RMK AO2 T02150142
KY70 222215Z AUTO 06010KT 10SM BKN041 BKN050 BKN060 22/14 A2975 RMK AO2 T02150144
KY70 222155Z AUTO 07012G18KT 10SM SCT031 SCT039 BKN120 22/15 A2976 RMK AO2 T02200148
KY70 222135Z AUTO 05009KT 10SM -RA BKN028 BKN037 OVC120 22/15 A2976 RMK AO2 T02150153
KY70 222115Z AUTO 04006KT 10SM -RA SCT036 BKN055 OVC080 21/16 A2977 RMK AO2 T02130156
KY70 222055Z AUTO 05006KT 10SM RA SCT036 BKN065 OVC080 21/16 A2977 RMK AO2 P0001 60001 T02080155
KY70 222035Z AUTO 05006KT 10SM -RA SCT031 BKN048 OVC100 22/15 A2978 RMK AO2 T02150145
KY70 222015Z AUTO 05007KT 10SM -RA SCT033 SCT075 BKN090 22/13 A2978 RMK AO2 T02200133
KY70 221955Z AUTO 05008G16KT 10SM SCT090 BKN120 22/13 A2978 RMK AO2 T02200126
KY70 221935Z AUTO 06012G16KT 10SM BKN110 23/13 A2977 RMK AO2 T02260129
KY70 221915Z AUTO 06013G22KT 10SM CLR 23/13 A2977 RMK AO2 T02270125